Time;durP1;ratioP1;P1;durP2;ratioP2;P2;SDS_P1;SDS_P2;PMS_P1;PMS_P2;Temp;Humidity;BMP_temperature;BMP_pressure;BME280_temperature;BME280_humidity;BME280_pressure;Samples;Min_cycle;Max_cycle;Signal;HPM_P1;HPM_P2
2021/03/04 00:00:25;;;;;;;47.00;30.55;;;;;;;;;;4333067;33;20139;-78
2021/03/04 00:02:54;;;;;;;40.63;21.98;;;;;;;;;;4326460;33;20048;-79
2021/03/04 00:05:22;;;;;;;25.95;15.13;;;;;;;;;;4328571;33;20149;-78
2021/03/04 00:07:50;;;;;;;25.73;12.23;;;;;;;;;;4335981;33;20147;-78
2021/03/04 00:10:20;;;;;;;23.67;9.35;;;;;;;;;;4336007;32;20136;-78
2021/03/04 00:12:48;;;;;;;30.00;16.52;;;;;;;;;;4333362;33;20184;-78
2021/03/04 00:15:18;;;;;;;39.20;27.75;;;;;;;;;;4327918;33;20052;-79
2021/03/04 00:17:47;;;;;;;35.53;23.52;;;;;;;;;;4326189;33;20629;-79
2021/03/04 00:20:17;;;;;;;34.92;28.23;;;;;;;;;;4325592;33;20126;-78
2021/03/04 00:22:45;;;;;;;31.33;20.58;;;;;;;;;;4330057;33;20145;-80
2021/03/04 00:25:14;;;;;;;51.67;39.33;;;;;;;;;;4329037;33;20083;-80
2021/03/04 00:27:42;;;;;;;28.20;5.68;;;;;;;;;;4334368;33;20048;-78
2021/03/04 00:30:11;;;;;;;23.30;5.80;;;;;;;;;;4334269;33;20151;-79
2021/03/04 00:32:39;;;;;;;26.05;5.97;;;;;;;;;;4334840;33;20087;-79
2021/03/04 00:35:08;;;;;;;23.25;6.12;;;;;;;;;;4329453;33;20048;-79
2021/03/04 00:37:37;;;;;;;21.52;5.78;;;;;;;;;;4328931;33;20103;-78
2021/03/04 00:40:09;;;;;;;36.42;16.60;;;;;;;;;;4328713;33;20044;-79
2021/03/04 00:42:38;;;;;;;21.17;5.53;;;;;;;;;;4327692;33;20563;-79
2021/03/04 00:45:08;;;;;;;34.78;17.10;;;;;;;;;;4330571;33;20230;-78
2021/03/04 00:47:37;;;;;;;23.38;8.20;;;;;;;;;;4329581;33;20625;-78
2021/03/04 00:50:05;;;;;;;27.55;5.80;;;;;;;;;;4337043;33;20147;-78
2021/03/04 00:52:34;;;;;;;20.85;5.90;;;;;;;;;;4339771;33;20591;-78
2021/03/04 00:55:02;;;;;;;17.83;5.60;;;;;;;;;;4334323;33;20632;-79
2021/03/04 00:57:30;;;;;;;27.80;6.18;;;;;;;;;;4328655;33;20130;-79
2021/03/04 00:59:58;;;;;;;30.30;16.02;;;;;;;;;;4332193;33;20066;-78
2021/03/04 01:02:26;;;;;;;23.50;8.82;;;;;;;;;;4331565;33;20064;-78
2021/03/04 01:04:54;;;;;;;24.40;6.25;;;;;;;;;;4332628;33;20157;-81
2021/03/04 01:07:23;;;;;;;35.42;6.75;;;;;;;;;;4332929;33;20515;-77
2021/03/04 01:09:51;;;;;;;26.52;6.07;;;;;;;;;;4334562;33;20118;-77
2021/03/04 01:12:19;;;;;;;23.87;5.87;;;;;;;;;;4326451;33;20398;-79
2021/03/04 01:14:47;;;;;;;32.42;5.82;;;;;;;;;;4329610;33;20138;-78
2021/03/04 01:17:15;;;;;;;29.23;6.07;;;;;;;;;;4330155;33;20150;-78
2021/03/04 01:19:43;;;;;;;24.77;6.15;;;;;;;;;;4332806;33;20506;-78
2021/03/04 01:22:12;;;;;;;24.67;5.62;;;;;;;;;;4334075;33;20082;-78
2021/03/04 01:24:40;;;;;;;28.58;6.22;;;;;;;;;;4332315;33;20044;-78
2021/03/04 01:27:08;;;;;;;22.60;5.62;;;;;;;;;;4329926;33;20078;-78
2021/03/04 01:29:36;;;;;;;25.77;6.18;;;;;;;;;;4328605;33;20417;-77
2021/03/04 01:32:05;;;;;;;23.65;5.72;;;;;;;;;;4325592;33;20863;-78
2021/03/04 01:34:33;;;;;;;26.15;5.78;;;;;;;;;;4334514;33;20048;-80
2021/03/04 01:37:01;;;;;;;20.95;6.00;;;;;;;;;;4332502;33;20109;-78
2021/03/04 01:39:30;;;;;;;27.35;5.90;;;;;;;;;;4334096;33;20731;-78
2021/03/04 01:41:57;;;;;;;42.97;23.90;;;;;;;;;;4333096;33;20226;-77
2021/03/04 01:44:26;;;;;;;40.83;32.72;;;;;;;;;;4332643;33;20329;-77
2021/03/04 01:46:54;;;;;;;44.17;34.30;;;;;;;;;;4330296;33;20472;-78
2021/03/04 01:49:22;;;;;;;37.88;21.12;;;;;;;;;;4330856;33;20658;-78
2021/03/04 01:51:51;;;;;;;17.75;4.93;;;;;;;;;;4326206;33;20091;-78
2021/03/04 01:54:19;;;;;;;52.05;35.53;;;;;;;;;;4328865;33;20060;-78
2021/03/04 01:56:47;;;;;;;50.67;35.30;;;;;;;;;;4331746;33;20501;-79
2021/03/04 01:59:15;;;;;;;42.22;30.30;;;;;;;;;;4334680;33;20108;-77
2021/03/04 02:04:33;;;;;;;35.67;23.90;;;;;;;;;;4332230;33;20433;-78
2021/03/04 02:07:02;;;;;;;20.27;5.97;;;;;;;;;;4333156;33;20420;-77
2021/03/04 02:09:31;;;;;;;20.92;5.05;;;;;;;;;;4333733;33;20114;-78
2021/03/04 02:12:08;;;;;;;18.23;4.95;;;;;;;;;;4325223;33;20815;-77
2021/03/04 02:14:46;;;;;;;21.90;5.40;;;;;;;;;;4332185;33;20119;-78
2021/03/04 02:17:15;;;;;;;34.17;19.27;;;;;;;;;;4332227;33;20203;-80
2021/03/04 02:19:46;;;;;;;22.87;4.87;;;;;;;;;;4339508;33;20064;-77
2021/03/04 02:22:20;;;;;;;40.00;28.27;;;;;;;;;;4338068;33;20114;-78
2021/03/04 02:25:07;;;;;;;28.60;5.43;;;;;;;;;;4330482;33;20689;-79
2021/03/04 02:27:36;;;;;;;17.20;4.22;;;;;;;;;;4335772;33;20223;-78
2021/03/04 02:30:07;;;;;;;21.70;6.10;;;;;;;;;;4335866;33;20586;-78
2021/03/04 02:32:38;;;;;;;21.95;5.68;;;;;;;;;;4336909;33;20166;-77
2021/03/04 02:35:09;;;;;;;28.25;5.50;;;;;;;;;;4326865;33;20119;-79
2021/03/04 02:37:43;;;;;;;21.40;5.05;;;;;;;;;;4336465;33;20094;-77
2021/03/04 02:40:11;;;;;;;19.87;6.45;;;;;;;;;;4341683;33;20048;-77
2021/03/04 02:42:40;;;;;;;36.30;24.40;;;;;;;;;;4338295;33;20619;-78
2021/03/04 02:45:10;;;;;;;22.40;10.23;;;;;;;;;;4335003;33;20099;-78
2021/03/04 02:47:39;;;;;;;12.82;4.45;;;;;;;;;;4338463;33;20134;-77
2021/03/04 02:50:08;;;;;;;34.17;28.23;;;;;;;;;;4335776;33;20267;-78
2021/03/04 02:52:37;;;;;;;22.25;9.50;;;;;;;;;;4339934;33;20124;-79
2021/03/04 02:55:08;;;;;;;19.58;4.53;;;;;;;;;;4330438;33;20122;-78
2021/03/04 02:57:40;;;;;;;18.62;5.12;;;;;;;;;;4336679;33;20113;-77
2021/03/04 03:00:09;;;;;;;15.23;4.30;;;;;;;;;;4338737;33;20080;-78
2021/03/04 03:02:39;;;;;;;16.83;4.68;;;;;;;;;;4334600;33;20078;-77
2021/03/04 03:05:11;;;;;;;12.18;3.83;;;;;;;;;;4338261;33;20966;-78
2021/03/04 03:07:43;;;;;;;23.75;4.65;;;;;;;;;;4340008;33;20068;-77
2021/03/04 03:13:09;;;;;;;18.23;4.53;;;;;;;;;;4325213;27;20041;-94
2021/03/04 03:15:39;;;;;;;20.95;4.28;;;;;;;;;;4292628;33;20082;-93
2021/03/04 03:18:18;;;;;;;21.00;4.65;;;;;;;;;;4295929;33;20057;-95
2021/03/04 03:20:47;;;;;;;19.50;4.47;;;;;;;;;;4296410;33;20064;-93
2021/03/04 03:23:15;;;;;;;17.40;5.00;;;;;;;;;;4300679;33;20087;-94
2021/03/04 03:25:43;;;;;;;16.37;4.40;;;;;;;;;;4307468;33;20114;-94
2021/03/04 03:28:18;;;;;;;16.62;4.30;;;;;;;;;;4280746;33;20135;-94
2021/03/04 03:30:46;;;;;;;18.12;4.35;;;;;;;;;;4297127;33;20438;-94
2021/03/04 03:33:15;;;;;;;26.52;5.18;;;;;;;;;;4286199;33;20068;-93
2021/03/04 03:35:47;;;;;;;21.85;4.70;;;;;;;;;;4307645;33;20088;-95
2021/03/04 03:38:21;;;;;;;18.02;4.57;;;;;;;;;;4288397;33;20052;-93
2021/03/04 03:40:55;;;;;;;15.02;4.00;;;;;;;;;;4290213;33;20069;-95
2021/03/04 03:43:24;;;;;;;16.75;5.62;;;;;;;;;;4289049;33;20111;-95
2021/03/04 03:45:59;;;;;;;19.23;4.30;;;;;;;;;;4295946;33;20128;-92
2021/03/04 03:48:41;;;;;;;20.00;4.40;;;;;;;;;;4308437;33;20176;-93
2021/03/04 03:51:10;;;;;;;16.15;4.37;;;;;;;;;;4292047;33;20079;-93
2021/03/04 03:53:43;;;;;;;15.55;3.95;;;;;;;;;;4304060;33;20057;-93
2021/03/04 03:56:17;;;;;;;18.55;4.28;;;;;;;;;;4284480;33;20095;-93
2021/03/04 03:58:45;;;;;;;21.95;4.80;;;;;;;;;;4280531;33;20106;-93
2021/03/04 04:01:17;;;;;;;19.92;5.22;;;;;;;;;;4301405;33;20414;-93
2021/03/04 04:03:45;;;;;;;14.80;3.92;;;;;;;;;;4290354;33;20103;-93
2021/03/04 04:06:13;;;;;;;21.33;4.60;;;;;;;;;;4287378;33;20135;-93
2021/03/04 04:08:44;;;;;;;16.33;4.22;;;;;;;;;;4292909;33;20352;-93
2021/03/04 04:11:13;;;;;;;19.60;4.28;;;;;;;;;;4296575;33;20095;-95
2021/03/04 04:13:41;;;;;;;18.12;4.60;;;;;;;;;;4288017;33;20178;-95
2021/03/04 04:16:09;;;;;;;15.32;4.50;;;;;;;;;;4285037;33;20058;-93
2021/03/04 04:18:42;;;;;;;18.10;3.97;;;;;;;;;;4298809;33;20048;-93
2021/03/04 04:21:11;;;;;;;19.58;4.28;;;;;;;;;;4299088;33;20446;-94
2021/03/04 04:24:02;;;;;;;17.37;4.78;;;;;;;;;;4282893;33;20100;-94
2021/03/04 04:26:43;;;;;;;20.83;4.82;;;;;;;;;;4294320;33;20118;-93
2021/03/04 04:29:12;;;;;;;37.58;29.55;;;;;;;;;;4283800;33;20100;-95
2021/03/04 04:31:45;;;;;;;15.10;4.25;;;;;;;;;;4296349;33;20100;-93
2021/03/04 04:34:15;;;;;;;15.98;4.03;;;;;;;;;;4282909;33;20587;-94
2021/03/04 04:36:48;;;;;;;22.45;4.47;;;;;;;;;;4295151;33;20105;-94
2021/03/04 04:39:18;;;;;;;18.52;4.35;;;;;;;;;;4281892;33;20108;-94
2021/03/04 04:41:48;;;;;;;18.90;9.27;;;;;;;;;;4292774;33;20471;-92
2021/03/04 04:44:17;;;;;;;14.25;4.70;;;;;;;;;;4309784;33;20049;-93
2021/03/04 04:46:48;;;;;;;18.65;4.72;;;;;;;;;;4286144;33;20084;-94
2021/03/04 04:49:26;;;;;;;18.52;5.05;;;;;;;;;;4309615;33;20100;-93
2021/03/04 04:51:57;;;;;;;18.52;5.28;;;;;;;;;;4294365;33;20084;-93
2021/03/04 04:54:27;;;;;;;19.70;4.62;;;;;;;;;;4283730;33;20516;-93
2021/03/04 04:56:55;;;;;;;18.05;4.97;;;;;;;;;;4308328;33;20087;-94
2021/03/04 04:59:23;;;;;;;19.62;4.85;;;;;;;;;;4276687;33;20148;-93
2021/03/04 05:01:55;;;;;;;24.52;17.08;;;;;;;;;;4294374;33;20660;-92
2021/03/04 05:04:23;;;;;;;19.48;4.87;;;;;;;;;;4299249;33;20083;-94
2021/03/04 05:06:54;;;;;;;17.00;6.57;;;;;;;;;;4285105;33;20063;-95
2021/03/04 05:09:25;;;;;;;55.53;43.47;;;;;;;;;;4294829;33;20065;-94
2021/03/04 05:11:58;;;;;;;44.92;40.30;;;;;;;;;;4311341;33;20049;-93
2021/03/04 05:14:27;;;;;;;44.58;40.00;;;;;;;;;;4300413;33;20667;-96
2021/03/04 05:17:03;;;;;;;46.35;41.67;;;;;;;;;;4281143;33;20057;-93
2021/03/04 05:19:34;;;;;;;46.33;40.25;;;;;;;;;;4307147;33;20143;-94
2021/03/04 05:22:02;;;;;;;45.50;40.42;;;;;;;;;;4294874;33;20079;-95
2021/03/04 05:24:30;;;;;;;39.05;34.75;;;;;;;;;;4280254;33;20168;-95
2021/03/04 05:27:06;;;;;;;26.30;17.37;;;;;;;;;;4297014;33;20115;-94
2021/03/04 05:29:38;;;;;;;33.22;29.85;;;;;;;;;;4312227;33;20052;-92
2021/03/04 05:32:07;;;;;;;33.42;29.92;;;;;;;;;;4286281;33;20072;-92
2021/03/04 05:34:42;;;;;;;37.15;25.73;;;;;;;;;;4281621;33;20057;-93
2021/03/04 05:37:15;;;;;;;25.35;22.62;;;;;;;;;;4287886;33;20063;-94
2021/03/04 05:39:44;;;;;;;25.92;19.35;;;;;;;;;;4289939;33;20089;-93
2021/03/04 05:42:18;;;;;;;45.70;40.65;;;;;;;;;;4298492;33;20083;-94
2021/03/04 05:44:52;;;;;;;52.67;43.08;;;;;;;;;;4296338;33;20065;-94
2021/03/04 05:47:28;;;;;;;43.28;38.83;;;;;;;;;;4285020;33;20072;-94
2021/03/04 05:50:05;;;;;;;29.17;23.05;;;;;;;;;;4296697;33;20033;-94
2021/03/04 05:52:54;;;;;;;40.78;36.17;;;;;;;;;;4303929;33;20433;-94
2021/03/04 05:55:22;;;;;;;52.20;44.50;;;;;;;;;;4280138;33;20076;-93
2021/03/04 05:57:55;;;;;;;45.58;40.83;;;;;;;;;;4297528;33;20403;-94
2021/03/04 06:00:24;;;;;;;22.52;12.85;;;;;;;;;;4307888;33;20054;-95
2021/03/04 06:02:55;;;;;;;46.50;41.92;;;;;;;;;;4289259;33;20516;-94
2021/03/04 06:05:26;;;;;;;48.13;43.05;;;;;;;;;;4296025;33;20163;-94
2021/03/04 06:08:01;;;;;;;42.15;37.97;;;;;;;;;;4288419;33;20112;-95
2021/03/04 06:10:33;;;;;;;17.30;4.93;;;;;;;;;;4291310;33;20160;-96
2021/03/04 06:13:02;;;;;;;16.65;4.68;;;;;;;;;;4275604;33;20079;-93
2021/03/04 06:15:37;;;;;;;51.05;45.75;;;;;;;;;;4298016;33;20084;-93
2021/03/04 06:18:11;;;;;;;35.72;31.92;;;;;;;;;;4288154;33;20111;-94
2021/03/04 06:20:54;;;;;;;33.95;26.02;;;;;;;;;;4307971;33;20116;-94
2021/03/04 06:23:31;;;;;;;35.13;31.00;;;;;;;;;;4292083;33;20057;-93
2021/03/04 06:26:05;;;;;;;36.78;33.28;;;;;;;;;;4297280;33;20083;-94
2021/03/04 06:28:44;;;;;;;43.28;35.10;;;;;;;;;;4291171;33;20075;-92
2021/03/04 06:31:20;;;;;;;37.53;33.60;;;;;;;;;;4283901;33;20441;-93
2021/03/04 06:33:49;;;;;;;40.17;34.88;;;;;;;;;;4296501;33;20045;-93
2021/03/04 06:36:21;;;;;;;39.10;35.00;;;;;;;;;;4288194;33;20060;-93
2021/03/04 06:38:56;;;;;;;44.95;40.38;;;;;;;;;;4286581;33;20072;-94
2021/03/04 06:41:24;;;;;;;;;;;;;;;;;;4286407;33;20708;-94
2021/03/04 06:44:02;;;;;;;17.15;5.10;;;;;;;;;;4284632;33;19974;-94
2021/03/04 06:46:46;;;;;;;16.25;4.80;;;;;;;;;;4297198;33;20211;-93
2021/03/04 06:49:20;;;;;;;19.08;5.30;;;;;;;;;;4295726;33;20100;-92
2021/03/04 06:51:52;;;;;;;19.98;6.05;;;;;;;;;;4285050;33;20053;-94
2021/03/04 06:54:27;;;;;;;22.55;5.25;;;;;;;;;;4284389;33;20111;-93
2021/03/04 06:56:55;;;;;;;18.35;4.97;;;;;;;;;;4282834;33;20056;-95
2021/03/04 06:59:23;;;;;;;15.27;5.32;;;;;;;;;;4277899;33;20115;-93
2021/03/04 07:01:56;;;;;;;12.80;5.07;;;;;;;;;;4286264;33;20096;-92
2021/03/04 07:04:25;;;;;;;21.23;5.50;;;;;;;;;;4294598;33;20505;-94
2021/03/04 07:07:05;;;;;;;15.88;4.95;;;;;;;;;;4297675;33;20064;-95
2021/03/04 07:09:38;;;;;;;14.32;4.43;;;;;;;;;;4289140;33;20114;-93
2021/03/04 07:12:09;;;;;;;38.92;34.83;;;;;;;;;;4314116;33;20076;-93
2021/03/04 07:14:43;;;;;;;36.75;32.88;;;;;;;;;;4276761;33;20742;-93
2021/03/04 07:17:11;;;;;;;43.35;39.28;;;;;;;;;;4287793;33;20110;-93
2021/03/04 07:19:51;;;;;;;16.02;4.50;;;;;;;;;;4286904;33;20053;-93
2021/03/04 07:22:19;;;;;;;17.02;4.78;;;;;;;;;;4297514;33;20060;-92
2021/03/04 07:24:48;;;;;;;56.17;50.08;;;;;;;;;;4299454;33;20103;-93
2021/03/04 07:27:21;;;;;;;49.88;45.38;;;;;;;;;;4295157;33;20065;-93
2021/03/04 07:29:49;;;;;;;51.60;46.92;;;;;;;;;;4290605;33;20061;-94
2021/03/04 07:32:21;;;;;;;55.38;49.90;;;;;;;;;;4299253;33;20048;-95
2021/03/04 07:34:49;;;;;;;54.78;48.85;;;;;;;;;;4297657;33;20108;-94
2021/03/04 07:37:18;;;;;;;57.70;51.53;;;;;;;;;;4278274;33;20623;-94
2021/03/04 07:40:00;;;;;;;50.85;45.92;;;;;;;;;;4286144;33;20065;-95
2021/03/04 07:42:31;;;;;;;53.97;48.53;;;;;;;;;;4285470;33;20102;-95
2021/03/04 07:45:12;;;;;;;40.83;37.17;;;;;;;;;;4292216;33;20097;-95
2021/03/04 07:47:46;;;;;;;12.98;5.62;;;;;;;;;;4296652;33;20056;-93
2021/03/04 07:50:24;;;;;;;49.28;44.88;;;;;;;;;;4288403;33;20069;-94
2021/03/04 07:53:04;;;;;;;43.20;33.60;;;;;;;;;;4297736;33;20049;-94
2021/03/04 07:55:39;;;;;;;58.35;53.72;;;;;;;;;;4292486;33;20103;-96
2021/03/04 07:58:14;;;;;;;16.98;8.23;;;;;;;;;;4297214;33;20109;-94
2021/03/04 08:00:56;;;;;;;13.13;5.32;;;;;;;;;;4288668;33;20111;-94
2021/03/04 08:03:45;;;;;;;17.17;5.40;;;;;;;;;;4286513;33;20075;-94
2021/03/04 08:06:13;;;;;;;15.10;11.40;;;;;;;;;;4284972;33;20152;-96
2021/03/04 08:08:47;;;;;;;16.55;12.02;;;;;;;;;;4311533;33;20487;-93
2021/03/04 08:11:25;;;;;;;14.90;4.43;;;;;;;;;;4295022;33;20823;-95
2021/03/04 08:13:57;;;;;;;18.55;14.15;;;;;;;;;;4298088;33;20388;-96
2021/03/04 08:16:25;;;;;;;12.10;4.28;;;;;;;;;;4299453;33;20693;-95
2021/03/04 08:19:02;;;;;;;12.25;5.20;;;;;;;;;;4298317;33;20069;-95
2021/03/04 08:21:43;;;;;;;15.88;6.75;;;;;;;;;;4310990;33;20060;-95
2021/03/04 08:24:34;;;;;;;19.95;10.98;;;;;;;;;;4290531;33;20080;-96
2021/03/04 08:27:18;;;;;;;15.07;9.65;;;;;;;;;;4283135;33;20125;-94
2021/03/04 08:29:53;;;;;;;13.23;7.15;;;;;;;;;;4289961;33;20131;-96
2021/03/04 08:32:34;;;;;;;;;;;;;;;;;;4309001;33;20069;-96
2021/03/04 08:35:14;;;;;;;11.98;5.75;;;;;;;;;;4292652;33;20399;-95
2021/03/04 08:37:57;;;;;;;15.32;6.43;;;;;;;;;;4283570;33;20064;-95
2021/03/04 08:40:41;;;;;;;16.15;5.72;;;;;;;;;;4286861;33;20167;-96
2021/03/04 08:43:13;;;;;;;15.75;5.72;;;;;;;;;;4287403;33;20056;-94
2021/03/04 08:45:51;;;;;;;15.68;6.68;;;;;;;;;;4299134;33;20056;-95
2021/03/04 08:48:23;;;;;;;10.88;5.45;;;;;;;;;;4302927;33;20060;-95
2021/03/04 08:51:04;;;;;;;10.45;3.28;;;;;;;;;;4285556;33;20092;-94
2021/03/04 08:53:33;;;;;;;14.77;3.87;;;;;;;;;;4298615;33;20079;-94
2021/03/04 08:56:05;;;;;;;13.93;3.67;;;;;;;;;;4285634;33;20052;-95
2021/03/04 08:58:34;;;;;;;14.18;4.00;;;;;;;;;;4297934;33;20501;-93
2021/03/04 09:01:07;;;;;;;;;;;;;;;;;;4298647;33;20093;-93
2021/03/04 09:03:37;;;;;;;11.38;3.65;;;;;;;;;;4296191;33;19983;-93
2021/03/04 09:06:09;;;;;;;9.63;3.45;;;;;;;;;;4283872;33;20182;-93
2021/03/04 09:08:42;;;;;;;12.05;3.55;;;;;;;;;;4281133;33;20164;-94
2021/03/04 09:11:22;;;;;;;11.52;3.58;;;;;;;;;;4294116;33;20094;-94
2021/03/04 09:14:01;;;;;;;9.70;3.47;;;;;;;;;;4280444;33;20150;-93
2021/03/04 09:16:29;;;;;;;12.18;3.25;;;;;;;;;;4284072;33;20438;-93
2021/03/04 09:18:58;;;;;;;12.07;3.45;;;;;;;;;;4281805;33;20083;-93
2021/03/04 09:21:26;;;;;;;10.63;4.60;;;;;;;;;;4259932;33;20115;-95
2021/03/04 09:23:57;;;;;;;11.70;3.50;;;;;;;;;;4257867;33;20111;-93
2021/03/04 09:26:32;;;;;;;15.20;3.33;;;;;;;;;;4272401;33;20061;-93
2021/03/04 09:29:06;;;;;;;13.80;3.75;;;;;;;;;;4282949;33;20155;-95
2021/03/04 09:31:35;;;;;;;11.95;3.83;;;;;;;;;;4269858;33;20064;-95
2021/03/04 09:34:04;;;;;;;12.02;3.53;;;;;;;;;;4272723;33;20080;-94
2021/03/04 09:36:35;;;;;;;9.40;3.33;;;;;;;;;;4286486;33;20071;-93
2021/03/04 09:39:03;;;;;;;14.18;4.07;;;;;;;;;;4273507;33;20345;-91
2021/03/04 09:41:31;;;;;;;11.77;3.30;;;;;;;;;;4273404;33;20057;-94
2021/03/04 09:44:07;;;;;;;19.00;4.45;;;;;;;;;;4279323;33;20065;-94
2021/03/04 09:46:59;;;;;;;10.82;3.67;;;;;;;;;;4277506;33;20069;-96
2021/03/04 09:49:33;;;;;;;15.90;4.18;;;;;;;;;;4274142;33;20049;-94
2021/03/04 09:52:04;;;;;;;11.35;3.47;;;;;;;;;;4269957;33;20104;-94
2021/03/04 09:55:19;;;;;;;15.65;3.58;;;;;;;;;;4276146;33;20053;-92
2021/03/04 09:57:47;;;;;;;16.70;5.22;;;;;;;;;;4279114;33;20093;-93
2021/03/04 10:00:23;;;;;;;15.43;4.43;;;;;;;;;;4280757;33;20064;-92
2021/03/04 10:02:52;;;;;;;16.42;4.93;;;;;;;;;;4267032;33;20483;-94
2021/03/04 10:05:22;;;;;;;13.55;3.72;;;;;;;;;;4283036;33;20156;-94
2021/03/04 10:07:56;;;;;;;16.30;3.83;;;;;;;;;;4268689;33;20141;-91
2021/03/04 10:10:25;;;;;;;15.03;4.23;;;;;;;;;;4279992;33;20079;-94
2021/03/04 10:12:57;;;;;;;12.55;3.70;;;;;;;;;;4302090;33;20077;-95
2021/03/04 10:15:33;;;;;;;13.57;3.62;;;;;;;;;;4284882;33;20587;-92
2021/03/04 10:18:08;;;;;;;10.88;3.65;;;;;;;;;;4294761;33;20143;-94
2021/03/04 10:20:41;;;;;;;14.95;5.30;;;;;;;;;;4306395;33;20049;-95
2021/03/04 10:23:16;;;;;;;13.65;4.87;;;;;;;;;;4302073;33;20128;-96
2021/03/04 10:25:45;;;;;;;15.23;5.00;;;;;;;;;;4298656;33;20115;-94
2021/03/04 10:28:13;;;;;;;14.87;3.80;;;;;;;;;;4287327;33;20079;-93
2021/03/04 10:30:41;;;;;;;12.00;4.65;;;;;;;;;;4294264;33;20061;-94
2021/03/04 10:33:11;;;;;;;14.05;3.83;;;;;;;;;;4308666;33;20066;-93
2021/03/04 10:35:40;;;;;;;15.68;4.65;;;;;;;;;;4293506;33;20052;-94
2021/03/04 10:38:08;;;;;;;8.70;3.20;;;;;;;;;;4313408;33;20063;-93
2021/03/04 10:40:38;;;;;;;13.15;3.87;;;;;;;;;;4314799;33;20056;-94
2021/03/04 10:43:11;;;;;;;9.45;3.75;;;;;;;;;;4293952;33;20065;-94
2021/03/04 10:45:47;;;;;;;12.13;3.35;;;;;;;;;;4312812;33;20044;-94
2021/03/04 10:48:16;;;;;;;19.67;4.43;;;;;;;;;;4301357;33;20068;-94
2021/03/04 10:50:47;;;;;;;11.20;3.25;;;;;;;;;;4315549;33;20110;-94
2021/03/04 10:53:17;;;;;;;13.48;3.58;;;;;;;;;;4300271;33;20497;-95
2021/03/04 10:55:47;;;;;;;14.95;4.90;;;;;;;;;;4293826;33;20084;-93
2021/03/04 10:58:16;;;;;;;11.88;3.85;;;;;;;;;;4291108;33;20112;-95
2021/03/04 11:00:44;;;;;;;12.18;3.90;;;;;;;;;;4301347;33;20095;-96
2021/03/04 11:03:13;;;;;;;13.52;3.03;;;;;;;;;;4288393;33;20087;-94
2021/03/04 11:05:42;;;;;;;13.18;3.67;;;;;;;;;;4297152;33;20060;-94
2021/03/04 11:08:13;;;;;;;9.52;3.70;;;;;;;;;;4295458;33;20083;-96
2021/03/04 11:10:41;;;;;;;12.37;3.65;;;;;;;;;;4289122;33;20589;-95
2021/03/04 11:13:16;;;;;;;11.90;3.30;;;;;;;;;;4298983;33;20122;-95
2021/03/04 11:15:47;;;;;;;11.40;3.60;;;;;;;;;;4299306;33;20145;-96
2021/03/04 11:18:18;;;;;;;11.73;3.60;;;;;;;;;;4299369;33;20107;-94
2021/03/04 11:20:46;;;;;;;11.20;3.10;;;;;;;;;;4284157;33;20060;-94
2021/03/04 11:23:18;;;;;;;13.88;3.75;;;;;;;;;;4303934;33;20064;-94
2021/03/04 11:26:07;;;;;;;16.42;3.70;;;;;;;;;;4287022;33;20122;-94
2021/03/04 11:28:35;;;;;;;16.73;3.53;;;;;;;;;;4298898;33;20061;-94
2021/03/04 11:31:04;;;;;;;14.80;3.87;;;;;;;;;;4299102;33;20084;-94
2021/03/04 11:33:36;;;;;;;12.30;3.33;;;;;;;;;;4301706;33;20099;-93
2021/03/04 11:36:04;;;;;;;11.25;3.55;;;;;;;;;;4312527;33;20092;-93
2021/03/04 11:38:32;;;;;;;14.23;3.92;;;;;;;;;;4285651;33;20104;-92
2021/03/04 11:41:03;;;;;;;12.88;3.97;;;;;;;;;;4284211;33;20100;-94
2021/03/04 11:43:32;;;;;;;14.98;3.87;;;;;;;;;;4283801;33;20054;-94
2021/03/04 11:46:09;;;;;;;12.18;3.83;;;;;;;;;;4287493;33;20462;-94
2021/03/04 11:48:45;;;;;;;9.23;3.60;;;;;;;;;;4294922;33;20092;-94
2021/03/04 11:51:18;;;;;;;14.18;3.30;;;;;;;;;;4286488;33;20079;-94
2021/03/04 11:53:46;;;;;;;13.60;3.47;;;;;;;;;;4301706;33;20084;-95
2021/03/04 11:56:23;;;;;;;11.73;3.47;;;;;;;;;;4288102;33;20057;-96
2021/03/04 11:58:55;;;;;;;14.43;3.55;;;;;;;;;;4301690;33;20140;-94
2021/03/04 12:01:32;;;;;;;10.40;2.90;;;;;;;;;;4292991;33;20071;-94
2021/03/04 12:04:04;;;;;;;13.85;4.05;;;;;;;;;;4295517;33;20064;-92
2021/03/04 12:06:36;;;;;;;14.38;3.70;;;;;;;;;;4297664;33;20623;-93
2021/03/04 12:09:05;;;;;;;17.27;3.92;;;;;;;;;;4295374;33;20540;-95
2021/03/04 12:11:48;;;;;;;14.52;3.90;;;;;;;;;;4287810;33;20398;-93
2021/03/04 12:14:16;;;;;;;15.48;4.15;;;;;;;;;;4313701;33;20041;-94
2021/03/04 12:16:56;;;;;;;13.32;3.83;;;;;;;;;;4297970;33;20121;-95
2021/03/04 12:19:26;;;;;;;14.10;3.67;;;;;;;;;;4286408;33;20115;-94
2021/03/04 12:21:58;;;;;;;11.77;3.53;;;;;;;;;;4296261;33;20524;-94
2021/03/04 12:24:31;;;;;;;15.55;3.45;;;;;;;;;;4292977;33;20558;-94
2021/03/04 12:27:02;;;;;;;14.15;3.50;;;;;;;;;;4292772;33;20160;-94
2021/03/04 12:29:30;;;;;;;15.15;3.70;;;;;;;;;;4282392;33;20182;-96
2021/03/04 12:31:58;;;;;;;14.52;3.42;;;;;;;;;;4285678;33;20079;-94
2021/03/04 12:34:32;;;;;;;15.23;3.58;;;;;;;;;;4291562;33;20115;-94
2021/03/04 12:37:07;;;;;;;13.73;3.00;;;;;;;;;;4281430;33;20489;-94
2021/03/04 12:39:40;;;;;;;11.07;2.83;;;;;;;;;;4297075;33;20807;-92
2021/03/04 12:42:08;;;;;;;11.60;3.15;;;;;;;;;;4299706;33;20181;-95
2021/03/04 12:44:38;;;;;;;14.60;3.65;;;;;;;;;;4284581;33;20053;-94
2021/03/04 12:47:06;;;;;;;13.23;3.30;;;;;;;;;;4302495;33;20056;-95
2021/03/04 12:49:37;;;;;;;12.57;3.37;;;;;;;;;;4286837;33;20155;-93
2021/03/04 12:52:11;;;;;;;12.40;2.95;;;;;;;;;;4295238;33;20061;-93
2021/03/04 12:54:39;;;;;;;11.52;2.83;;;;;;;;;;4297330;33;20077;-93
2021/03/04 12:57:08;;;;;;;9.23;2.70;;;;;;;;;;4283180;33;20531;-96
2021/03/04 12:59:41;;;;;;;13.50;3.42;;;;;;;;;;4293441;33;20116;-94
2021/03/04 13:02:14;;;;;;;14.20;3.13;;;;;;;;;;4279914;33;20052;-93
2021/03/04 13:04:43;;;;;;;18.70;2.95;;;;;;;;;;4295115;33;20534;-94
2021/03/04 13:07:15;;;;;;;13.38;3.20;;;;;;;;;;4280128;33;20142;-94
2021/03/04 13:09:43;;;;;;;13.48;3.35;;;;;;;;;;4281123;33;20053;-94
2021/03/04 13:12:11;;;;;;;13.13;3.50;;;;;;;;;;4282395;33;20082;-94
2021/03/04 13:14:45;;;;;;;21.95;3.80;;;;;;;;;;4283738;33;20111;-95
2021/03/04 13:17:20;;;;;;;11.52;3.25;;;;;;;;;;4283383;33;20454;-95
2021/03/04 13:19:48;;;;;;;16.83;3.55;;;;;;;;;;4284560;33;20061;-93
2021/03/04 13:22:23;;;;;;;13.68;3.20;;;;;;;;;;4298006;33;20108;-94
2021/03/04 13:24:54;;;;;;;13.88;3.25;;;;;;;;;;4283576;33;20585;-95
2021/03/04 13:27:31;;;;;;;14.52;3.42;;;;;;;;;;4291398;33;20102;-94
2021/03/04 13:29:59;;;;;;;10.55;3.22;;;;;;;;;;4288774;33;20061;-94
2021/03/04 13:32:35;;;;;;;10.30;3.37;;;;;;;;;;4281452;33;20143;-93
2021/03/04 13:35:11;;;;;;;18.35;3.20;;;;;;;;;;4287424;33;20171;-93
2021/03/04 13:37:41;;;;;;;12.77;2.65;;;;;;;;;;4294472;33;20087;-93
2021/03/04 13:40:11;;;;;;;18.30;3.10;;;;;;;;;;4284064;33;20083;-93
2021/03/04 13:42:59;;;;;;;14.13;3.00;;;;;;;;;;4297348;33;20060;-94
2021/03/04 13:45:28;;;;;;;14.75;3.22;;;;;;;;;;4280009;33;20088;-94
2021/03/04 13:47:56;;;;;;;15.10;3.12;;;;;;;;;;4291934;33;20061;-94
2021/03/04 13:50:24;;;;;;;12.85;2.80;;;;;;;;;;4280497;33;20152;-95
2021/03/04 13:52:56;;;;;;;10.45;2.65;;;;;;;;;;4279879;33;20524;-96
2021/03/04 13:55:24;;;;;;;10.82;2.80;;;;;;;;;;4292239;33;20107;-94
2021/03/04 13:58:02;;;;;;;14.48;2.90;;;;;;;;;;4285054;33;20053;-92
2021/03/04 14:00:32;;;;;;;13.88;2.90;;;;;;;;;;4301095;33;20044;-94
2021/03/04 14:03:01;;;;;;;14.38;3.40;;;;;;;;;;4287045;33;20076;-94
2021/03/04 14:05:29;;;;;;;10.90;3.00;;;;;;;;;;4302313;33;20643;-94
2021/03/04 14:08:05;;;;;;;13.88;3.12;;;;;;;;;;4291506;33;20080;-95
2021/03/04 14:10:34;;;;;;;11.48;3.05;;;;;;;;;;4304109;33;20062;-96
2021/03/04 14:13:03;;;;;;;11.57;3.08;;;;;;;;;;4291725;33;20064;-96
2021/03/04 14:15:31;;;;;;;13.27;3.12;;;;;;;;;;4305335;33;20087;-96
2021/03/04 14:18:02;;;;;;;14.10;3.05;;;;;;;;;;4300620;33;20052;-95
2021/03/04 14:20:33;;;;;;;14.23;3.15;;;;;;;;;;4298828;33;20070;-96
2021/03/04 14:23:02;;;;;;;12.95;3.17;;;;;;;;;;4301624;33;20320;-94
2021/03/04 14:25:30;;;;;;;14.98;3.67;;;;;;;;;;4294972;33;20049;-96
2021/03/04 14:28:12;;;;;;;16.77;3.50;;;;;;;;;;4304520;33;20103;-96
2021/03/04 14:30:40;;;;;;;16.00;3.78;;;;;;;;;;4298604;33;20071;-95
2021/03/04 14:33:11;;;;;;;12.63;3.35;;;;;;;;;;4305705;33;20359;-96
2021/03/04 14:35:53;;;;;;;11.15;2.80;;;;;;;;;;4296015;33;20060;-96
2021/03/04 14:38:22;;;;;;;8.38;2.83;;;;;;;;;;4309855;33;20097;-97
2021/03/04 14:41:02;;;;;;;9.55;2.90;;;;;;;;;;4303401;33;20049;-96
2021/03/04 14:43:38;;;;;;;12.15;3.00;;;;;;;;;;4318935;33;20084;-94
2021/03/04 14:46:22;;;;;;;14.57;3.15;;;;;;;;;;4305122;33;20076;-93
2021/03/04 14:48:55;;;;;;;15.30;3.12;;;;;;;;;;4300559;33;20474;-96
2021/03/04 14:51:23;;;;;;;13.60;3.40;;;;;;;;;;4303598;33;20428;-95
2021/03/04 14:53:55;;;;;;;17.10;3.05;;;;;;;;;;4290983;33;20083;-96
2021/03/04 14:56:28;;;;;;;10.05;2.60;;;;;;;;;;4311873;33;20107;-94
2021/03/04 14:58:56;;;;;;;14.68;2.80;;;;;;;;;;4309416;33;20053;-95
2021/03/04 15:01:24;;;;;;;14.00;3.30;;;;;;;;;;4293358;33;20041;-95